Time;durP1;ratioP1;P1;durP2;ratioP2;P2;SDS_P1;SDS_P2;PMS_P1;PMS_P2;Temp;Humidity;BMP_temperature;BMP_pressure;BME280_temperature;BME280_humidity;BME280_pressure;Samples;Min_cycle;Max_cycle;Signal;HPM_P1;HPM_P2
2021/05/06 00:31:24;;;;;;;2.13;1.20;;;6.10;80.70;;;;;;5055137;28;20080;-73
2021/05/06 00:33:48;;;;;;;3.37;1.50;;;6.10;81.10;;;;;;5066277;28;20044;-73
2021/05/06 00:36:14;;;;;;;1.73;1.07;;;6.00;81.30;;;;;;5074083;28;20448;-73
2021/05/06 00:38:46;;;;;;;2.80;1.30;;;6.00;81.60;;;;;;5071836;28;20046;-73
2021/05/06 00:57:48;;;;;;;2.63;1.33;;;6.00;82.70;;;;;;5073438;28;20047;-73
2021/05/06 01:03:36;;;;;;;4.47;2.17;;;6.00;83.00;;;;;;5071548;28;20072;-73
2021/05/06 01:06:05;;;;;;;3.37;1.77;;;6.00;83.20;;;;;;5076812;28;20052;-72
2021/05/06 01:08:37;;;;;;;2.93;1.43;;;5.90;83.40;;;;;;5075028;28;20400;-72
2021/05/06 01:13:32;;;;;;;2.43;1.20;;;6.00;83.60;;;;;;5075185;28;20051;-73
2021/05/06 01:15:59;;;;;;;2.60;1.50;;;6.00;83.70;;;;;;5072375;28;20563;-73
2021/05/06 01:18:27;;;;;;;3.20;1.77;;;6.00;83.80;;;;;;5057271;28;20098;-73
2021/05/06 01:20:57;;;;;;;2.93;1.80;;;6.00;83.90;;;;;;5055418;28;20159;-73
2021/05/06 01:23:26;;;;;;;2.70;1.63;;;6.00;84.00;;;;;;5072977;28;20059;-73
2021/05/06 01:26:05;;;;;;;3.40;1.60;;;6.00;84.10;;;;;;5040790;28;20496;-73
2021/05/06 01:28:36;;;;;;;2.30;1.30;;;6.00;84.30;;;;;;5074486;28;20036;-73
2021/05/06 01:31:08;;;;;;;2.60;1.40;;;6.00;84.40;;;;;;5054708;28;20579;-73
2021/05/06 01:36:06;;;;;;;2.93;1.17;;;6.00;84.50;;;;;;5074216;28;20071;-73
2021/05/06 01:41:27;;;;;;;2.93;1.67;;;6.00;84.60;;;;;;5054486;28;20041;-73
2021/05/06 01:47:24;;;;;;;2.40;1.40;;;6.00;84.80;;;;;;5073640;28;20506;-74
2021/05/06 02:00:49;;;;;;;3.13;1.53;;;5.90;85.30;;;;;;5073570;28;20032;-75
2021/05/06 02:03:21;;;;;;;3.13;1.60;;;5.90;85.40;;;;;;5055361;28;20059;-75
2021/05/06 02:05:52;;;;;;;3.40;1.60;;;5.90;85.50;;;;;;5052099;28;20045;-74
2021/05/06 02:08:20;;;;;;;2.97;1.80;;;5.90;85.60;;;;;;5069876;28;20390;-74
2021/05/06 02:10:51;;;;;;;3.13;1.70;;;6.00;85.80;;;;;;5046907;28;20060;-74
2021/05/06 02:13:29;;;;;;;3.30;1.70;;;6.00;85.90;;;;;;5072862;28;20052;-74
2021/05/06 02:16:03;;;;;;;3.27;1.77;;;5.90;85.80;;;;;;5070731;28;20048;-74
2021/05/06 02:18:34;;;;;;;3.03;1.80;;;5.90;85.90;;;;;;5072875;28;20084;-74
2021/05/06 02:21:01;;;;;;;3.23;1.90;;;5.90;86.10;;;;;;5073162;28;20044;-74
2021/05/06 02:23:28;;;;;;;2.70;1.60;;;5.90;86.20;;;;;;5074120;28;20043;-74
2021/05/06 02:25:55;;;;;;;3.57;1.60;;;5.90;86.30;;;;;;5073888;28;20212;-74
2021/05/06 02:28:21;;;;;;;2.63;1.40;;;5.90;86.30;;;;;;5052756;28;20045;-74
2021/05/06 02:30:48;;;;;;;2.87;1.60;;;5.90;86.30;;;;;;5050456;28;20041;-74
2021/05/06 02:33:14;;;;;;;3.03;1.60;;;5.90;86.50;;;;;;5073567;28;20068;-74
2021/05/06 02:35:41;;;;;;;3.00;1.37;;;5.90;86.60;;;;;;5072254;28;20048;-73
2021/05/06 02:38:08;;;;;;;2.87;1.47;;;5.90;86.60;;;;;;5073360;28;20051;-73
2021/05/06 02:40:34;;;;;;;2.77;1.30;;;5.90;86.60;;;;;;5072179;28;20044;-73
2021/05/06 02:43:01;;;;;;;2.90;1.80;;;5.90;86.70;;;;;;5072367;28;20037;-73
2021/05/06 02:45:28;;;;;;;3.07;1.43;;;5.90;86.70;;;;;;5071739;28;20529;-73
2021/05/06 02:47:54;;;;;;;3.00;1.47;;;5.90;86.80;;;;;;5065805;28;20095;-74
2021/05/06 02:50:23;;;;;;;3.10;1.40;;;5.80;86.80;;;;;;5052732;28;20997;-73
2021/05/06 02:52:59;;;;;;;2.77;1.73;;;5.80;86.90;;;;;;5071811;28;20477;-73
2021/05/06 02:55:40;;;;;;;2.83;1.63;;;5.80;87.00;;;;;;5072423;28;20028;-74
2021/05/06 02:58:14;;;;;;;2.80;1.47;;;5.80;87.00;;;;;;5071783;28;20037;-73
2021/05/06 03:03:26;;;;;;;4.13;1.60;;;5.80;87.20;;;;;;5071073;28;20413;-73
2021/05/06 03:05:54;;;;;;;3.53;1.40;;;5.70;87.20;;;;;;5071680;28;20037;-73
2021/05/06 03:08:31;;;;;;;2.97;1.57;;;5.70;87.30;;;;;;5054783;28;20048;-73
2021/05/06 03:23:57;;;;;;;3.90;1.77;;;5.40;88.00;;;;;;5070584;28;20051;-73
2021/05/06 03:26:23;;;;;;;2.80;1.63;;;5.30;88.10;;;;;;5069253;28;20048;-74
2021/05/06 03:28:55;;;;;;;3.13;1.57;;;5.30;88.10;;;;;;5054726;28;20041;-73
2021/05/06 03:45:59;;;;;;;3.00;1.83;;;5.10;89.20;;;;;;5071918;28;20040;-73
2021/05/06 04:18:29;;;;;;;3.30;1.97;;;4.90;89.30;;;;;;5071072;28;20040;-75
2021/05/06 04:37:01;;;;;;;4.63;2.50;;;5.20;90.10;;;;;;5082643;28;20064;-75
2021/05/06 04:39:49;;;;;;;4.43;2.57;;;5.20;89.50;;;;;;5068725;28;20090;-75
2021/05/06 04:50:28;;;;;;;4.70;3.17;;;5.40;89.50;;;;;;5047071;28;20144;-75
2021/05/06 04:55:47;;;;;;;5.13;3.13;;;5.30;89.50;;;;;;5070912;28;20032;-76
2021/05/06 05:03:53;;;;;;;6.23;3.63;;;5.50;89.60;;;;;;5055486;28;20496;-75
2021/05/06 05:06:23;;;;;;;6.90;4.50;;;5.60;89.60;;;;;;5055394;28;20048;-75
2021/05/06 05:14:36;;;;;;;6.47;4.30;;;5.70;89.50;;;;;;5057832;28;20048;-73
2021/05/06 05:20:13;;;;;;;6.27;4.13;;;5.80;89.50;;;;;;5070008;28;20131;-72
2021/05/06 05:25:36;;;;;;;6.77;4.17;;;5.80;89.50;;;;;;5069321;28;20401;-73
2021/05/06 05:28:07;;;;;;;9.57;5.57;;;5.90;89.60;;;;;;5068647;28;20052;-73
2021/05/06 05:30:35;;;;;;;7.80;5.20;;;5.90;89.60;;;;;;5070987;28;20032;-72
2021/05/06 05:33:13;;;;;;;8.70;5.33;;;5.90;89.60;;;;;;5056162;28;20036;-73
2021/05/06 05:35:44;;;;;;;8.63;5.73;;;5.90;89.60;;;;;;5070244;28;20779;-73
2021/05/06 05:56:52;;;;;;;12.67;8.10;;;6.10;89.80;;;;;;5073981;28;20039;-75
2021/05/06 05:59:19;;;;;;;15.70;9.83;;;6.20;89.90;;;;;;5073331;28;20051;-75
2021/05/06 06:01:49;;;;;;;13.77;9.13;;;6.20;89.90;;;;;;5073747;28;20460;-74
2021/05/06 06:04:16;;;;;;;13.53;9.30;;;6.30;89.90;;;;;;5073088;28;20400;-75
2021/05/06 06:06:42;;;;;;;15.30;9.33;;;6.30;89.80;;;;;;5073251;28;20097;-75
2021/05/06 06:09:09;;;;;;;13.80;8.77;;;6.40;89.80;;;;;;5072264;28;20052;-74
2021/05/06 06:11:36;;;;;;;13.23;9.43;;;6.50;89.80;;;;;;5073637;28;20041;-75
2021/05/06 06:14:06;;;;;;;12.07;8.37;;;6.60;89.70;;;;;;5070153;28;20119;-75
2021/05/06 06:16:35;;;;;;;13.20;8.67;;;6.70;89.60;;;;;;5068772;28;20522;-75
2021/05/06 06:19:03;;;;;;;13.57;8.67;;;6.70;89.40;;;;;;5070503;28;20048;-74
2021/05/06 06:21:53;;;;;;;12.87;8.37;;;6.80;89.50;;;;;;5066432;28;20052;-74
2021/05/06 06:24:18;;;;;;;14.00;9.10;;;6.80;89.50;;;;;;5071443;28;20044;-75
2021/05/06 06:26:45;;;;;;;11.57;8.00;;;6.80;89.50;;;;;;5056008;28;20033;-75
2021/05/06 06:29:17;;;;;;;11.37;7.57;;;6.80;89.50;;;;;;5073506;28;20044;-75
2021/05/06 06:31:47;;;;;;;11.93;8.00;;;6.80;89.50;;;;;;5072379;28;20135;-75
2021/05/06 06:34:14;;;;;;;11.33;8.33;;;7.00;89.70;;;;;;5055157;28;20084;-74
2021/05/06 06:36:44;;;;;;;12.27;8.53;;;7.00;89.50;;;;;;5073700;28;20047;-72
2021/05/06 06:39:13;;;;;;;11.47;8.50;;;7.10;89.40;;;;;;5072744;28;20044;-72
2021/05/06 06:41:40;;;;;;;12.37;7.30;;;7.20;89.40;;;;;;5072215;28;20128;-73
2021/05/06 06:44:07;;;;;;;11.97;7.93;;;7.20;89.30;;;;;;5072802;28;20033;-73
2021/05/06 06:46:33;;;;;;;11.70;7.87;;;7.20;89.20;;;;;;5051611;28;20378;-73
2021/05/06 06:49:03;;;;;;;11.83;7.50;;;7.30;89.30;;;;;;5054037;28;20049;-73
2021/05/06 06:51:31;;;;;;;10.93;7.70;;;7.40;89.30;;;;;;5051999;28;20132;-73
2021/05/06 06:53:57;;;;;;;13.83;9.57;;;7.50;89.20;;;;;;5062327;28;20357;-73
2021/05/06 06:56:24;;;;;;;13.47;9.50;;;7.50;88.90;;;;;;5072016;28;20431;-73
2021/05/06 06:58:52;;;;;;;12.57;8.90;;;7.50;88.80;;;;;;5072335;28;20040;-73
2021/05/06 07:01:20;;;;;;;10.10;6.87;;;7.50;88.80;;;;;;5072252;28;20048;-73
2021/05/06 07:03:47;;;;;;;12.05;8.25;;;7.60;88.90;;;;;;5070769;28;20792;-72
2021/05/06 07:06:13;;;;;;;12.27;8.23;;;7.70;88.70;;;;;;5070371;28;20154;-72
2021/05/06 07:08:42;;;;;;;11.80;7.13;;;7.70;88.60;;;;;;5072323;28;20040;-73
2021/05/06 07:11:09;;;;;;;8.40;6.40;;;7.80;88.70;;;;;;5054483;28;20569;-73
2021/05/06 07:13:36;;;;;;;13.27;8.97;;;7.90;88.60;;;;;;5070605;28;20122;-73
2021/05/06 07:16:05;;;;;;;12.30;9.30;;;8.00;88.40;;;;;;5070818;28;20035;-72
2021/05/06 07:18:33;;;;;;;10.43;8.00;;;8.00;88.20;;;;;;5072234;28;20039;-73
2021/05/06 07:21:02;;;;;;;11.20;7.80;;;8.10;88.20;;;;;;5072222;28;20063;-73
2021/05/06 07:23:29;;;;;;;12.47;8.63;;;8.20;88.10;;;;;;5069912;28;20392;-72
2021/05/06 07:25:59;;;;;;;12.20;8.60;;;8.20;88.00;;;;;;5072074;28;20071;-72
2021/05/06 07:28:37;;;;;;;12.63;8.30;;;8.20;88.00;;;;;;5071580;28;20052;-71
2021/05/06 07:31:09;;;;;;;13.17;9.33;;;8.40;88.00;;;;;;5070649;28;20048;-72
2021/05/06 07:33:40;;;;;;;12.37;8.43;;;8.40;88.10;;;;;;5051058;28;20072;-73
2021/05/06 07:36:11;;;;;;;12.82;9.38;;;8.40;88.00;;;;;;5054142;28;20369;-73
2021/05/06 07:38:42;;;;;;;11.20;8.52;;;8.30;87.80;;;;;;5071147;28;20044;-73
2021/05/06 07:41:13;;;;;;;10.55;6.85;;;8.30;88.80;;;;;;5072158;28;20036;-72
2021/05/06 07:43:43;;;;;;;11.10;7.57;;;8.30;88.20;;;;;;5070707;28;20053;-73
2021/05/06 07:46:15;;;;;;;10.60;7.75;;;8.30;88.10;;;;;;5070248;28;20384;-73
2021/05/06 07:48:47;;;;;;;8.82;6.22;;;8.40;88.00;;;;;;5045773;28;20101;-73
2021/05/06 07:51:18;;;;;;;9.82;6.70;;;8.60;87.80;;;;;;5070436;28;20056;-72
2021/05/06 07:53:49;;;;;;;11.00;7.13;;;8.80;88.10;;;;;;5071817;28;20499;-72
2021/05/06 07:56:20;;;;;;;10.20;7.40;;;8.90;87.00;;;;;;5070536;28;20058;-73
2021/05/06 07:58:46;;;;;;;8.63;5.82;;;8.90;86.90;;;;;;5070213;28;20132;-73
2021/05/06 08:01:13;;;;;;;7.97;5.50;;;9.00;87.00;;;;;;5070627;28;20041;-73
2021/05/06 08:03:40;;;;;;;9.27;6.07;;;9.20;87.10;;;;;;5070384;28;20507;-72
2021/05/06 08:06:07;;;;;;;8.60;6.43;;;9.30;86.60;;;;;;5034491;28;20048;-72
2021/05/06 08:08:33;;;;;;;7.57;5.47;;;9.30;86.30;;;;;;5064978;28;20507;-72
2021/05/06 08:11:00;;;;;;;7.40;5.13;;;9.20;86.20;;;;;;5050624;28;20136;-72
2021/05/06 08:13:28;;;;;;;8.07;5.85;;;9.20;86.40;;;;;;5064745;28;20041;-73
2021/05/06 08:15:56;;;;;;;5.82;4.30;;;9.10;86.20;;;;;;5071699;28;20045;-72
2021/05/06 08:18:24;;;;;;;5.70;3.88;;;9.20;86.60;;;;;;5070549;28;20041;-72
2021/05/06 08:20:51;;;;;;;5.78;3.60;;;9.40;86.70;;;;;;5069902;28;20072;-73
2021/05/06 08:23:20;;;;;;;4.43;2.88;;;9.60;86.30;;;;;;5070390;28;20044;-73
2021/05/06 08:25:47;;;;;;;4.65;3.17;;;9.90;86.00;;;;;;5071395;28;20052;-73
2021/05/06 08:28:14;;;;;;;3.83;2.80;;;10.10;85.40;;;;;;5071413;28;20102;-74
2021/05/06 08:30:42;;;;;;;4.95;3.05;;;10.20;84.80;;;;;;5070758;28;20128;-73
2021/05/06 08:33:11;;;;;;;4.13;2.60;;;10.10;84.50;;;;;;5036897;28;20056;-73
2021/05/06 08:35:38;;;;;;;4.82;2.85;;;10.00;84.40;;;;;;5070249;28;20529;-73
2021/05/06 08:38:05;;;;;;;4.70;2.85;;;9.90;84.30;;;;;;5070772;28;20102;-74
2021/05/06 08:40:32;;;;;;;4.32;2.90;;;9.80;84.90;;;;;;5075376;28;20056;-74
2021/05/06 08:43:09;;;;;;;4.32;2.47;;;9.70;84.60;;;;;;5072078;28;20107;-76
2021/05/06 08:45:42;;;;;;;3.30;2.03;;;9.80;84.90;;;;;;5054565;28;20044;-74
2021/05/06 08:48:11;;;;;;;2.85;1.70;;;9.80;85.00;;;;;;5071834;28;20427;-74
2021/05/06 08:50:39;;;;;;;3.33;1.92;;;9.90;85.10;;;;;;5041550;28;20080;-74
2021/05/06 08:53:08;;;;;;;5.68;2.85;;;10.10;84.70;;;;;;5068785;28;20052;-74
2021/05/06 08:55:35;;;;;;;4.32;2.80;;;10.30;84.50;;;;;;5066704;28;20068;-73
2021/05/06 08:58:02;;;;;;;4.50;3.25;;;10.40;83.50;;;;;;5070671;28;20113;-73
2021/05/06 09:00:31;;;;;;;3.67;2.58;;;10.40;83.20;;;;;;5052555;28;20093;-74
2021/05/06 09:02:58;;;;;;;4.03;2.35;;;10.40;83.40;;;;;;5071711;28;20036;-73
2021/05/06 09:05:24;;;;;;;4.38;2.78;;;10.50;83.10;;;;;;5070179;28;20052;-74
2021/05/06 09:07:52;;;;;;;4.75;3.22;;;10.50;83.70;;;;;;5071464;28;20124;-73
2021/05/06 09:10:39;;;;;;;5.28;3.42;;;10.50;82.90;;;;;;5074295;28;20416;-73
2021/05/06 09:13:27;;;;;;;5.40;2.80;;;10.60;81.80;;;;;;5073916;28;20056;-73
2021/05/06 09:15:54;;;;;;;5.05;3.13;;;10.60;82.20;;;;;;5057290;28;20412;-73
2021/05/06 09:18:47;;;;;;;5.10;2.95;;;10.60;81.60;;;;;;5056791;28;20806;-72
2021/05/06 09:21:29;;;;;;;4.78;3.15;;;10.60;81.90;;;;;;5071979;28;20032;-73
2021/05/06 09:24:27;;;;;;;5.95;3.38;;;10.80;82.20;;;;;;5068900;28;20037;-73
2021/05/06 09:26:56;;;;;;;5.28;3.42;;;11.10;81.80;;;;;;5070407;28;20443;-74
2021/05/06 09:29:34;;;;;;;4.38;2.83;;;11.30;81.50;;;;;;5073617;28;20396;-75
2021/05/06 09:32:32;;;;;;;4.85;3.50;;;11.50;81.50;;;;;;5074786;28;20495;-72
2021/05/06 09:34:59;;;;;;;4.47;2.92;;;11.50;80.50;;;;;;5062846;28;20424;-72
2021/05/06 09:37:28;;;;;;;5.50;3.78;;;11.50;80.80;;;;;;5073551;28;20040;-74
2021/05/06 09:40:08;;;;;;;5.40;3.75;;;11.60;80.70;;;;;;5074747;28;20058;-74
2021/05/06 09:42:44;;;;;;;5.05;3.40;;;11.80;79.50;;;;;;5057141;28;20082;-73
2021/05/06 09:45:25;;;;;;;5.78;4.07;;;11.80;79.60;;;;;;5077784;28;20541;-74
2021/05/06 09:48:07;;;;;;;5.55;3.78;;;11.80;79.10;;;;;;5073320;28;20506;-74
2021/05/06 09:50:35;;;;;;;5.47;3.30;;;11.70;79.00;;;;;;5075312;28;20041;-73
2021/05/06 09:53:04;;;;;;;4.68;3.10;;;11.80;79.60;;;;;;5074588;28;20866;-74
2021/05/06 09:55:33;;;;;;;7.45;4.30;;;12.00;79.40;;;;;;5073558;28;20044;-73
2021/05/06 09:58:11;;;;;;;6.07;4.50;;;12.20;77.60;;;;;;5053735;28;20079;-73
2021/05/06 10:00:38;;;;;;;5.30;3.60;;;12.40;76.90;;;;;;5072160;28;20029;-72
2021/05/06 10:03:17;;;;;;;4.90;3.67;;;12.60;77.30;;;;;;5073216;28;20045;-73
2021/05/06 10:05:45;;;;;;;7.00;4.25;;;13.00;77.10;;;;;;5065876;28;20040;-73
2021/05/06 10:08:16;;;;;;;5.63;3.90;;;13.20;77.40;;;;;;5057119;28;20052;-73
2021/05/06 10:10:43;;;;;;;5.93;3.92;;;13.40;76.50;;;;;;5073313;28;20094;-73
2021/05/06 10:13:11;;;;;;;6.80;4.38;;;13.50;76.30;;;;;;5073576;28;20059;-73
2021/05/06 10:15:40;;;;;;;8.88;5.00;;;13.50;74.40;;;;;;5072219;28;20051;-73
2021/05/06 10:18:08;;;;;;;8.35;5.72;;;13.40;74.30;;;;;;5072713;28;20114;-72
2021/05/06 10:20:35;;;;;;;8.60;4.57;;;13.20;72.70;;;;;;5072512;28;20040;-70
2021/05/06 10:23:02;;;;;;;6.30;4.05;;;13.10;73.70;;;;;;5071980;28;20041;-72
2021/05/06 10:25:30;;;;;;;5.35;3.80;;;13.20;74.40;;;;;;5073459;28;20040;-72
2021/05/06 10:27:57;;;;;;;5.32;3.40;;;13.40;74.40;;;;;;5058726;28;20058;-72
2021/05/06 10:30:24;;;;;;;5.60;4.18;;;13.50;74.50;;;;;;5073143;28;20059;-72
2021/05/06 10:32:51;;;;;;;6.53;4.68;;;13.70;73.60;;;;;;5071930;28;20047;-72
2021/05/06 10:35:21;;;;;;;6.22;4.25;;;13.70;73.10;;;;;;5071848;28;20377;-71
2021/05/06 10:37:59;;;;;;;5.50;4.20;;;13.80;73.00;;;;;;5072165;28;20043;-74
2021/05/06 10:40:32;;;;;;;5.70;4.50;;;13.80;71.70;;;;;;5073628;28;20041;-73
2021/05/06 10:43:22;;;;;;;6.88;4.68;;;13.90;72.00;;;;;;5071604;28;20100;-73
2021/05/06 10:46:01;;;;;;;6.68;4.35;;;14.00;69.40;;;;;;5071774;28;20093;-71
2021/05/06 10:49:02;;;;;;;6.28;3.83;;;14.00;70.30;;;;;;5066778;28;20036;-73
2021/05/06 10:51:40;;;;;;;5.93;3.80;;;14.20;70.70;;;;;;5069967;28;20550;-73
2021/05/06 10:54:31;;;;;;;4.70;3.35;;;14.60;70.20;;;;;;5073582;28;20063;-74
2021/05/06 10:57:22;;;;;;;5.03;3.58;;;15.00;69.70;;;;;;5088757;28;20045;-75
2021/05/06 10:59:50;;;;;;;4.83;3.20;;;15.20;68.70;;;;;;5041259;28;20048;-75
2021/05/06 11:02:43;;;;;;;6.03;3.53;;;15.40;68.70;;;;;;5072322;28;20281;-75
2021/05/06 11:05:11;;;;;;;5.13;3.20;;;15.70;67.70;;;;;;5061132;28;20122;-73
2021/05/06 11:07:38;;;;;;;6.18;3.53;;;15.90;67.70;;;;;;5078002;28;20044;-73
2021/05/06 11:10:06;;;;;;;5.68;3.50;;;15.70;67.10;;;;;;5080485;28;20045;-73
2021/05/06 11:12:35;;;;;;;4.47;2.60;;;15.40;67.50;;;;;;5071656;28;20032;-72
2021/05/06 11:15:05;;;;;;;7.13;4.05;;;15.20;67.80;;;;;;5077184;28;20041;-73
2021/05/06 11:17:32;;;;;;;5.10;3.45;;;15.10;67.20;;;;;;5072568;28;20037;-72
2021/05/06 11:20:23;;;;;;;4.32;2.97;;;14.60;68.10;;;;;;5071562;28;20076;-71
2021/05/06 11:22:58;;;;;;;4.25;2.92;;;14.10;67.70;;;;;;5037683;28;20095;-72
2021/05/06 11:25:28;;;;;;;4.40;2.92;;;13.60;68.90;;;;;;5081423;28;20052;-71
2021/05/06 11:28:05;;;;;;;4.55;2.30;;;13.30;69.70;;;;;;5070260;28;20062;-71
2021/05/06 11:30:49;;;;;;;3.67;2.15;;;13.10;69.40;;;;;;5072271;28;20036;-71
2021/05/06 11:33:20;;;;;;;4.00;2.08;;;12.90;70.20;;;;;;5064607;28;20041;-72
2021/05/06 11:36:03;;;;;;;3.55;2.13;;;12.90;70.50;;;;;;5061321;28;20467;-72
2021/05/06 11:38:36;;;;;;;2.80;1.83;;;13.10;69.90;;;;;;5068135;28;20044;-71
2021/05/06 11:41:02;;;;;;;;;;;13.20;69.40;;;;;;5062873;28;20036;-71
2021/05/06 11:43:29;;;;;;;2.50;1.45;;;13.60;68.80;;;;;;5070584;28;19920;-72
2021/05/06 11:46:07;;;;;;;3.13;1.70;;;14.30;67.90;;;;;;5049144;28;20052;-74
2021/05/06 11:48:42;;;;;;;2.22;1.42;;;14.60;67.00;;;;;;5063494;28;20044;-73
2021/05/06 11:51:10;;;;;;;1.85;0.95;;;15.00;66.90;;;;;;5058999;28;20412;-72
2021/05/06 11:53:38;;;;;;;3.05;1.30;;;15.50;66.70;;;;;;5063595;28;20056;-74
2021/05/06 11:56:13;;;;;;;3.40;1.70;;;15.90;66.60;;;;;;5064020;28;20095;-74
2021/05/06 11:58:42;;;;;;;2.53;1.48;;;16.10;66.30;;;;;;5068914;28;20051;-72
2021/05/06 12:01:09;;;;;;;3.10;1.70;;;16.30;66.50;;;;;;5072248;28;20063;-73
2021/05/06 12:03:38;;;;;;;4.05;2.03;;;16.70;66.50;;;;;;5070555;28;20123;-73
2021/05/06 12:06:06;;;;;;;3.50;2.03;;;17.00;65.90;;;;;;5071904;28;20059;-73
2021/05/06 12:08:43;;;;;;;2.60;1.55;;;17.20;65.70;;;;;;5084356;28;20052;-73
2021/05/06 12:11:11;;;;;;;4.47;3.15;;;17.50;65.20;;;;;;5071708;28;20190;-72
2021/05/06 12:13:40;;;;;;;3.80;2.65;;;17.70;64.20;;;;;;5070426;28;20036;-73
2021/05/06 12:16:12;;;;;;;3.47;2.40;;;17.70;63.80;;;;;;5070708;28;20098;-73
2021/05/06 12:18:39;;;;;;;4.00;2.53;;;17.80;63.70;;;;;;5070590;28;20052;-72
2021/05/06 12:21:05;;;;;;;4.88;3.00;;;17.80;63.20;;;;;;5070501;28;20090;-72
2021/05/06 12:23:34;;;;;;;4.38;3.05;;;17.70;62.20;;;;;;5072875;28;20391;-72
2021/05/06 12:26:15;;;;;;;4.28;2.35;;;17.40;62.80;;;;;;5070256;28;20041;-72
2021/05/06 12:28:41;;;;;;;3.30;2.10;;;17.20;63.30;;;;;;5070548;28;20404;-72
2021/05/06 12:31:07;;;;;;;3.17;2.25;;;16.80;64.10;;;;;;5050518;28;20052;-72
2021/05/06 12:33:34;;;;;;;4.88;3.60;;;16.40;63.30;;;;;;5070311;28;20055;-72
2021/05/06 12:36:01;;;;;;;4.78;3.33;;;15.50;59.30;;;;;;5063201;28;20051;-71
2021/05/06 12:38:30;;;;;;;4.03;3.00;;;14.70;61.90;;;;;;5053953;28;20037;-71
2021/05/06 12:41:02;;;;;;;4.35;2.45;;;13.90;63.30;;;;;;5071440;28;20078;-72
2021/05/06 12:43:30;;;;;;;3.35;1.60;;;13.30;64.40;;;;;;5071575;28;20403;-72
2021/05/06 12:46:10;;;;;;;3.08;1.80;;;12.70;66.10;;;;;;5052854;28;20041;-72
2021/05/06 12:48:58;;;;;;;3.20;1.92;;;12.30;66.80;;;;;;5085092;28;20542;-72
2021/05/06 12:51:28;;;;;;;3.15;2.10;;;12.00;67.20;;;;;;5061653;28;20502;-75
2021/05/06 12:54:06;;;;;;;3.08;2.00;;;11.80;67.90;;;;;;5074895;28;20055;-73
2021/05/06 12:56:42;;;;;;;3.55;2.03;;;11.80;68.20;;;;;;5073334;28;20524;-73
2021/05/06 12:59:29;;;;;;;4.00;1.77;;;11.80;67.90;;;;;;5066471;28;20118;-74
2021/05/06 13:02:09;;;;;;;4.30;2.67;;;11.90;68.50;;;;;;5069744;28;20412;-74
2021/05/06 13:04:42;;;;;;;3.63;2.63;;;12.10;68.30;;;;;;5057634;28;20561;-73
2021/05/06 13:07:09;;;;;;;3.70;2.90;;;12.40;68.10;;;;;;5075520;28;20385;-74
2021/05/06 13:09:41;;;;;;;3.38;2.30;;;12.70;67.20;;;;;;5075823;28;20048;-74
2021/05/06 13:12:13;;;;;;;4.00;2.33;;;12.80;67.30;;;;;;5074482;28;20436;-74
2021/05/06 13:14:51;;;;;;;3.95;3.00;;;13.00;67.10;;;;;;5075875;28;20278;-74
2021/05/06 13:17:27;;;;;;;2.90;1.85;;;13.20;66.90;;;;;;5075054;28;20059;-74
2021/05/06 13:19:55;;;;;;;3.08;1.73;;;13.50;67.20;;;;;;5074230;28;20032;-73
2021/05/06 13:22:23;;;;;;;2.83;1.80;;;13.70;67.30;;;;;;5071593;28;20044;-74
2021/05/06 13:24:52;;;;;;;4.32;2.60;;;14.00;67.30;;;;;;5073834;28;20044;-73
2021/05/06 13:27:21;;;;;;;2.53;1.65;;;14.20;67.70;;;;;;5057201;28;20052;-74
2021/05/06 13:30:00;;;;;;;2.63;1.70;;;14.50;67.20;;;;;;5075533;28;20058;-74
2021/05/06 13:32:38;;;;;;;2.70;1.58;;;15.00;67.80;;;;;;5075539;28;20045;-74
2021/05/06 13:35:05;;;;;;;3.88;2.33;;;15.60;66.50;;;;;;5073925;28;20055;-75
2021/05/06 13:37:43;;;;;;;5.80;2.83;;;15.90;65.70;;;;;;5073426;28;20045;-74
2021/05/06 13:40:10;;;;;;;4.82;2.70;;;15.60;64.20;;;;;;5075193;28;20040;-74
2021/05/06 13:42:37;;;;;;;3.40;2.10;;;15.50;65.00;;;;;;5073577;28;20484;-73
2021/05/06 13:45:07;;;;;;;4.88;2.72;;;15.40;65.10;;;;;;5075143;28;20403;-73
2021/05/06 13:47:33;;;;;;;3.65;2.60;;;15.20;65.10;;;;;;5072966;28;20127;-72
2021/05/06 13:50:00;;;;;;;3.90;2.65;;;14.90;65.60;;;;;;5072982;28;20040;-72
2021/05/06 13:52:31;;;;;;;3.58;2.45;;;14.70;66.10;;;;;;5067071;28;20049;-73
2021/05/06 13:54:58;;;;;;;5.32;2.70;;;14.40;65.90;;;;;;5072476;28;20095;-73
2021/05/06 13:57:25;;;;;;;5.55;3.50;;;14.20;66.60;;;;;;5071330;28;20373;-74
2021/05/06 13:59:51;;;;;;;3.63;2.45;;;13.80;65.10;;;;;;5056275;28;20044;-75
2021/05/06 14:02:20;;;;;;;4.53;2.50;;;13.60;66.90;;;;;;5053767;28;20036;-74
2021/05/06 14:04:49;;;;;;;3.15;2.22;;;13.50;66.50;;;;;;5067030;28;20044;-74
2021/05/06 14:07:15;;;;;;;4.22;2.38;;;13.30;67.00;;;;;;5072538;28;20040;-75
2021/05/06 14:09:43;;;;;;;3.40;2.25;;;13.00;66.70;;;;;;5053800;28;20917;-75
2021/05/06 14:12:10;;;;;;;3.65;2.22;;;12.80;66.80;;;;;;5056333;28;20045;-75
2021/05/06 14:14:37;;;;;;;2.70;1.50;;;12.70;67.90;;;;;;5053116;28;20048;-73
2021/05/06 14:17:03;;;;;;;2.70;1.77;;;12.70;68.40;;;;;;5072707;28;20040;-74
2021/05/06 14:19:30;;;;;;;1.83;1.05;;;12.70;68.50;;;;;;5068494;28;20085;-74
2021/05/06 14:21:57;;;;;;;1.85;1.23;;;12.60;68.90;;;;;;5067139;28;20047;-74
2021/05/06 14:24:23;;;;;;;2.38;1.33;;;12.70;69.20;;;;;;5056600;28;20109;-74
2021/05/06 14:26:50;;;;;;;2.92;1.42;;;12.70;69.40;;;;;;5055951;28;20044;-74
2021/05/06 14:29:17;;;;;;;4.53;2.00;;;12.70;69.20;;;;;;5061048;28;20094;-74
2021/05/06 14:31:45;;;;;;;2.55;1.73;;;12.70;68.80;;;;;;5070479;28;20049;-74
2021/05/06 14:34:11;;;;;;;2.83;1.75;;;12.70;69.10;;;;;;5063881;28;20040;-74
2021/05/06 14:36:38;;;;;;;3.42;2.00;;;12.60;69.30;;;;;;5073427;28;20028;-74
2021/05/06 14:39:08;;;;;;;2.53;1.55;;;12.70;69.60;;;;;;5071584;28;20438;-74
2021/05/06 14:41:35;;;;;;;2.53;1.40;;;12.70;69.70;;;;;;5067816;28;20036;-74
2021/05/06 14:44:02;;;;;;;3.45;2.38;;;12.80;69.80;;;;;;5066115;28;20556;-73
2021/05/06 14:46:28;;;;;;;3.78;2.25;;;12.70;69.30;;;;;;5066252;28;20045;-73
2021/05/06 14:48:55;;;;;;;3.30;2.22;;;12.60;69.00;;;;;;5072099;28;20060;-73
2021/05/06 14:51:21;;;;;;;3.47;2.17;;;12.60;69.40;;;;;;5069929;28;20084;-73
2021/05/06 14:53:51;;;;;;;4.60;1.90;;;12.60;69.20;;;;;;5050099;28;20090;-73
2021/05/06 14:56:17;;;;;;;2.88;1.80;;;12.50;69.60;;;;;;5052904;28;20036;-73
2021/05/06 14:58:44;;;;;;;3.35;1.92;;;12.60;69.80;;;;;;5071016;28;20037;-73
2021/05/06 15:01:10;;;;;;;3.70;1.88;;;12.80;70.40;;;;;;5068470;28;20049;-72
2021/05/06 15:03:37;;;;;;;2.67;1.40;;;13.00;70.00;;;;;;5070939;28;20106;-72
2021/05/06 15:06:04;;;;;;;3.00;1.90;;;13.10;70.00;;;;;;5067460;28;20131;-72
2021/05/06 15:08:32;;;;;;;3.28;2.25;;;13.30;69.90;;;;;;5057642;28;20040;-72
2021/05/06 15:10:59;;;;;;;4.05;2.28;;;13.40;69.90;;;;;;5055797;28;20044;-72
2021/05/06 15:13:28;;;;;;;3.05;1.55;;;13.50;70.00;;;;;;5041363;28;20044;-73
2021/05/06 15:15:54;;;;;;;3.25;1.60;;;13.60;70.10;;;;;;5063934;28;20045;-72
2021/05/06 15:18:21;;;;;;;2.25;1.50;;;13.60;70.00;;;;;;5062046;28;20047;-72
2021/05/06 15:20:48;;;;;;;2.83;1.95;;;13.60;70.00;;;;;;5053320;28;20487;-72
2021/05/06 15:23:20;;;;;;;4.28;3.05;;;13.60;70.10;;;;;;5060868;28;20388;-73
2021/05/06 15:25:46;;;;;;;4.55;2.67;;;13.50;69.20;;;;;;5057961;28;20041;-73
2021/05/06 15:28:13;;;;;;;4.72;2.47;;;13.30;69.50;;;;;;5067152;28;20754;-73
2021/05/06 15:30:41;;;;;;;3.30;2.10;;;13.20;68.80;;;;;;5053714;28;20040;-74
2021/05/06 15:33:07;;;;;;;4.03;2.55;;;13.10;69.40;;;;;;5068296;28;20052;-74
2021/05/06 15:35:34;;;;;;;3.28;2.03;;;13.10;69.30;;;;;;5060647;28;20040;-74
2021/05/06 15:38:01;;;;;;;5.05;2.05;;;13.10;69.60;;;;;;5052553;28;20041;-73
2021/05/06 15:40:27;;;;;;;3.78;2.80;;;13.20;70.30;;;;;;5059286;28;20033;-74
2021/05/06 15:43:06;;;;;;;3.22;1.90;;;13.70;69.30;;;;;;5066761;28;20461;-73
2021/05/06 15:45:34;;;;;;;3.58;2.20;;;14.60;68.90;;;;;;5050514;28;20127;-73
2021/05/06 15:48:01;;;;;;;4.03;2.10;;;15.10;67.60;;;;;;5067443;28;20043;-74
2021/05/06 15:50:28;;;;;;;4.43;3.22;;;15.10;67.10;;;;;;5057932;28;20123;-74
2021/05/06 15:52:54;;;;;;;4.15;2.42;;;15.00;67.20;;;;;;5059791;28;20105;-73
2021/05/06 15:55:21;;;;;;;4.10;2.72;;;14.80;67.50;;;;;;5067502;28;20044;-73
2021/05/06 15:57:48;;;;;;;2.70;1.88;;;14.60;66.90;;;;;;5066898;28;20063;-73
2021/05/06 16:00:16;;;;;;;3.10;2.00;;;14.20;67.80;;;;;;5055632;28;20055;-73
2021/05/06 16:02:45;;;;;;;3.45;1.65;;;14.00;68.20;;;;;;5058883;28;20044;-73
2021/05/06 16:05:23;;;;;;;2.78;1.73;;;13.80;68.80;;;;;;5046225;28;20137;-72
2021/05/06 16:07:50;;;;;;;3.33;1.48;;;13.60;69.00;;;;;;5062169;28;20048;-73
2021/05/06 16:10:16;;;;;;;2.17;1.10;;;13.50;69.20;;;;;;5063122;28;20044;-73
2021/05/06 16:12:43;;;;;;;3.15;1.33;;;13.40;69.40;;;;;;5064265;28;20037;-74
2021/05/06 16:15:10;;;;;;;2.38;1.33;;;13.30;69.40;;;;;;5058800;28;20082;-73
2021/05/06 16:17:37;;;;;;;2.53;1.55;;;13.20;69.20;;;;;;5068599;28;20036;-73
2021/05/06 16:20:28;;;;;;;2.85;1.38;;;13.10;69.30;;;;;;5068774;28;20045;-73
2021/05/06 16:22:56;;;;;;;2.28;1.30;;;13.00;69.10;;;;;;5058513;28;20056;-73